• Join FlightAware (Why Join?)
  • Login
  • US Flag 
04:05AM EST


 

Airport Tracker/Info


-or-


 

Live Flight TrackerFlight Track Log ✈ 9V-SFQ ✈ 17-Apr-2012 ✈ RJAA / NRT - VTBS / BKK

Flight Track Log - Related Links

Times and Time Zones

All times are in EDT time to prevent confusion due to time zone crossing. See the 9V-SFQ flight status page for this flight to view local times or setup timezone preferences in your user account.

Time Position Orientation Groundspeed Altitude Reporting Facility
EDT Latitude Longitude Course Direction KTS MPH feet Rate Location/Type
08:31AM 35.7541 140.3532 248° West  Level Estimated
08:32AM 35.7113 140.2206 248° West  Level Estimated
08:33AM 35.6684 140.0881 248° West  Level Estimated
08:34AM 35.6254 139.9558 248° West  Level Estimated
08:35AM 35.5822 139.8236 248° West  Level Estimated
08:36AM 35.5389 139.6916 248° West  Level Estimated
08:37AM 35.4954 139.5597 248° West  Level Estimated
08:38AM 35.4518 139.4279 248° West  Level Estimated
08:39AM 35.4081 139.2963 248° West  Level Estimated
08:40AM 35.3642 139.1648 248° West  Level Estimated
08:41AM 35.3201 139.0335 248° West  Level Estimated
08:42AM 35.2760 138.9023 248° West  Level Estimated
08:43AM 35.2317 138.7713 247° West  Level Estimated
08:44AM 35.1872 138.6404 247° West  Level Estimated
08:45AM 35.1426 138.5097 247° West  Level Estimated
08:46AM 35.0979 138.3791 247° West  Level Estimated
08:47AM 35.0530 138.2486 247° West  Level Estimated
08:48AM 35.0079 138.1183 247° West  Level Estimated
08:49AM 34.9628 137.9881 247° West  Level Estimated
08:50AM 34.9175 137.8581 247° West  Level Estimated
08:51AM 34.8721 137.7282 247° West  Level Estimated
08:52AM 34.8265 137.5984 247° West  Level Estimated
08:53AM 34.7808 137.4689 247° West  Level Estimated
08:54AM 34.7349 137.3394 247° West  Level Estimated
08:55AM 34.6889 137.2101 247° West  Level Estimated
08:56AM 34.6428 137.0809 246° West  Level Estimated
08:57AM 34.5965 136.9519 246° West  Level Estimated
08:58AM 34.5502 136.8230 246° West  Level Estimated
08:59AM 34.5036 136.6943 246° West  Level Estimated
09:00AM 34.4570 136.5657 246° West  Level Estimated
09:01AM 34.4101 136.4372 246° West  Level Estimated
09:02AM 34.3632 136.3089 246° West  Level Estimated
09:03AM 34.3161 136.1807 246° West  Level Estimated
09:04AM 34.2689 136.0527 246° West  Level Estimated
09:05AM 34.2216 135.9248 246° West  Level Estimated
09:06AM 34.1741 135.7971 246° West  Level Estimated
09:07AM 34.1265 135.6695 246° West  Level Estimated
09:08AM 34.0788 135.5421 246° West  Level Estimated
09:09AM 34.0309 135.4147 246° West  Level Estimated
09:10AM 33.9830 135.2876 245° Southwest  Level Estimated
09:11AM 33.9348 135.1606 245° Southwest  Level Estimated
09:12AM 33.8866 135.0337 245° Southwest  Level Estimated
09:13AM 33.8382 134.9070 245° Southwest  Level Estimated
09:14AM 33.7897 134.7804 245° Southwest  Level Estimated
09:15AM 33.7411 134.6540 245° Southwest  Level Estimated
09:16AM 33.6923 134.5277 245° Southwest  Level Estimated
09:17AM 33.6434 134.4015 245° Southwest  Level Estimated
09:18AM 33.5944 134.2755 245° Southwest  Level Estimated
09:19AM 33.5452 134.1496 245° Southwest  Level Estimated
09:20AM 33.4959 134.0239 245° Southwest  Level Estimated
09:21AM 33.4465 133.8983 245° Southwest  Level Estimated
09:22AM 33.3970 133.7729 245° Southwest  Level Estimated
09:23AM 33.3473 133.6476 245° Southwest  Level Estimated
09:24AM 33.2975 133.5224 245° Southwest  Level Estimated
09:25AM 33.2476 133.3974 244° Southwest  Level Estimated
09:26AM 33.1976 133.2726 244° Southwest  Level Estimated
09:27AM 33.1474 133.1478 244° Southwest  Level Estimated
09:28AM 33.0971 133.0233 244° Southwest  Level Estimated
09:29AM 33.0467 132.8988 244° Southwest  Level Estimated
09:30AM 32.9962 132.7745 244° Southwest  Level Estimated
09:31AM 32.9455 132.6504 244° Southwest  Level Estimated
09:32AM 32.8948 132.5264 244° Southwest  Level Estimated
09:33AM 32.8439 132.4025 244° Southwest  Level Estimated
09:34AM 32.7928 132.2788 244° Southwest  Level Estimated
09:35AM 32.7417 132.1552 244° Southwest  Level Estimated
09:36AM 32.6904 132.0317 244° Southwest  Level Estimated
09:37AM 32.6390 131.9084 244° Southwest  Level Estimated
09:38AM 32.5875 131.7853 244° Southwest  Level Estimated
09:39AM 32.5359 131.6623 243° Southwest  Level Estimated
09:40AM 32.4842 131.5394 243° Southwest  Level Estimated
09:41AM 32.4323 131.4167 243° Southwest  Level Estimated
09:42AM 32.3803 131.2941 243° Southwest  Level Estimated
09:43AM 32.3282 131.1716 243° Southwest  Level Estimated
09:44AM 32.2760 131.0493 243° Southwest  Level Estimated
09:45AM 32.2237 130.9272 243° Southwest  Level Estimated
09:46AM 32.1712 130.8051 243° Southwest  Level Estimated
09:47AM 32.1186 130.6832 243° Southwest  Level Estimated
09:48AM 32.0659 130.5615 243° Southwest  Level Estimated
09:49AM 32.0131 130.4399 243° Southwest  Level Estimated
09:50AM 31.9602 130.3184 243° Southwest  Level Estimated
09:51AM 31.9072 130.1971 243° Southwest  Level Estimated
09:52AM 31.8540 130.0759 243° Southwest  Level Estimated
09:53AM 31.8008 129.9549 243° Southwest  Level Estimated
09:54AM 31.7474 129.8340 243° Southwest  Level Estimated
09:55AM 31.6939 129.7132 242° Southwest  Level Estimated
09:56AM 31.6403 129.5926 242° Southwest  Level Estimated
09:57AM 31.5865 129.4721 242° Southwest  Level Estimated
09:58AM 31.5327 129.3517 242° Southwest  Level Estimated
09:59AM 31.4788 129.2315 242° Southwest  Level Estimated
10:00AM 31.4247 129.1115 242° Southwest  Level Estimated
10:01AM 31.3705 128.9915 242° Southwest  Level Estimated
10:02AM 31.3162 128.8717 242° Southwest  Level Estimated
10:03AM 31.2619 128.7521 242° Southwest  Level Estimated
10:04AM 31.2073 128.6326 242° Southwest  Level Estimated
10:05AM 31.1527 128.5132 242° Southwest  Level Estimated
10:06AM 31.0980 128.3939 242° Southwest  Level Estimated
10:07AM 31.0431 128.2748 242° Southwest  Level Estimated
10:08AM 30.9882 128.1558 242° Southwest  Level Estimated
10:09AM 30.9332 128.0370 242° Southwest  Level Estimated
10:10AM 30.8780 127.9183 242° Southwest  Level Estimated
10:11AM 30.8227 127.7998 241° Southwest  Level Estimated
10:12AM 30.7673 127.6813 241° Southwest  Level Estimated
10:13AM 30.7119 127.5630 241° Southwest  Level Estimated
10:14AM 30.6563 127.4449 241° Southwest  Level Estimated
10:15AM 30.6006 127.3269 241° Southwest  Level Estimated
10:16AM 30.5448 127.2090 241° Southwest  Level Estimated
10:17AM 30.4888 127.0913 241° Southwest  Level Estimated
10:18AM 30.4328 126.9737 241° Southwest  Level Estimated
10:19AM 30.3767 126.8562 241° Southwest  Level Estimated
10:20AM 30.3205 126.7389 241° Southwest  Level Estimated
10:21AM 30.2642 126.6217 241° Southwest  Level Estimated
10:22AM 30.2077 126.5046 241° Southwest  Level Estimated
10:23AM 30.1512 126.3877 241° Southwest  Level Estimated
10:24AM 30.0945 126.2709 241° Southwest  Level Estimated
10:25AM 30.0378 126.1542 241° Southwest  Level Estimated
10:26AM 29.9809 126.0377 241° Southwest  Level Estimated
10:27AM 29.9240 125.9213 241° Southwest  Level Estimated
10:28AM 29.8669 125.8050 240° Southwest  Level Estimated
10:29AM 29.8098 125.6889 240° Southwest  Level Estimated
10:30AM 29.7525 125.5729 240° Southwest  Level Estimated
10:31AM 29.6952 125.4570 240° Southwest  Level Estimated
10:32AM 29.6377 125.3413 240° Southwest  Level Estimated
10:33AM 29.5801 125.2257 240° Southwest  Level Estimated
10:34AM 29.5225 125.1102 240° Southwest  Level Estimated
10:35AM 29.4647 124.9949 240° Southwest  Level Estimated
10:36AM 29.4069 124.8796 240° Southwest  Level Estimated
10:37AM 29.3489 124.7646 240° Southwest  Level Estimated
10:38AM 29.2908 124.6496 240° Southwest  Level Estimated
10:39AM 29.2327 124.5348 240° Southwest  Level Estimated
10:40AM 29.1744 124.4201 240° Southwest  Level Estimated
10:41AM 29.1161 124.3056 240° Southwest  Level Estimated
10:42AM 29.0576 124.1911 240° Southwest  Level Estimated
10:43AM 28.9991 124.0768 240° Southwest  Level Estimated
10:44AM 28.9405 123.9627 240° Southwest  Level Estimated
10:45AM 28.8817 123.8486 240° Southwest  Level Estimated
10:46AM 28.8229 123.7347 239° Southwest  Level Estimated
10:47AM 28.7640 123.6210 239° Southwest  Level Estimated
10:48AM 28.7049 123.5073 239° Southwest  Level Estimated
10:49AM 28.6458 123.3938 239° Southwest  Level Estimated
10:50AM 28.5866 123.2804 239° Southwest  Level Estimated
10:51AM 28.5273 123.1671 239° Southwest  Level Estimated
10:52AM 28.4679 123.0540 239° Southwest  Level Estimated
10:53AM 28.4084 122.9410 239° Southwest  Level Estimated
10:54AM 28.3488 122.8281 239° Southwest  Level Estimated
10:55AM 28.2891 122.7153 239° Southwest  Level Estimated
10:56AM 28.2293 122.6027 239° Southwest  Level Estimated
10:57AM 28.1695 122.4902 239° Southwest  Level Estimated
10:58AM 28.1095 122.3778 239° Southwest  Level Estimated
10:59AM 28.0495 122.2656 239° Southwest  Level Estimated
11:00AM 27.9893 122.1535 239° Southwest  Level Estimated
11:01AM 27.9291 122.0415 239° Southwest  Level Estimated
11:02AM 27.8688 121.9296 239° Southwest  Level Estimated
11:03AM 27.8084 121.8178 239° Southwest  Level Estimated
11:04AM 27.7479 121.7062 238° Southwest  Level Estimated
11:05AM 27.6873 121.5947 238° Southwest  Level Estimated
11:06AM 27.6266 121.4833 238° Southwest  Level Estimated
11:07AM 27.5658 121.3721 238° Southwest  Level Estimated
11:08AM 27.5050 121.2609 238° Southwest  Level Estimated
11:09AM 27.4440 121.1499 238° Southwest  Level Estimated
11:10AM 27.3830 121.0390 238° Southwest  Level Estimated
11:11AM 27.3219 120.9283 238° Southwest  Level Estimated
11:12AM 27.2607 120.8176 238° Southwest  Level Estimated
11:13AM 27.1994 120.7071 238° Southwest  Level Estimated
11:14AM 27.1380 120.5967 238° Southwest  Level Estimated
11:15AM 27.0765 120.4864 238° Southwest  Level Estimated
11:16AM 27.0150 120.3763 238° Southwest  Level Estimated
11:17AM 26.9533 120.2663 238° Southwest  Level Estimated
11:18AM 26.8916 120.1563 238° Southwest  Level Estimated
11:19AM 26.8298 120.0465 238° Southwest  Level Estimated
11:20AM 26.7679 119.9369 238° Southwest  Level Estimated
11:21AM 26.7059 119.8273 238° Southwest  Level Estimated
11:22AM 26.6439 119.7179 238° Southwest  Level Estimated
11:23AM 26.5817 119.6085 238° Southwest  Level Estimated
11:24AM 26.5195 119.4993 237° Southwest  Level Estimated
11:25AM 26.4572 119.3903 237° Southwest  Level Estimated
11:26AM 26.3948 119.2813 237° Southwest  Level Estimated
11:27AM 26.3323 119.1724 237° Southwest  Level Estimated
11:28AM 26.2697 119.0637 237° Southwest  Level Estimated
11:29AM 26.2071 118.9551 237° Southwest  Level Estimated
11:30AM 26.1444 118.8466 237° Southwest  Level Estimated
11:31AM 26.0816 118.7382 237° Southwest  Level Estimated
11:32AM 26.0187 118.6300 237° Southwest  Level Estimated
11:33AM 25.9557 118.5218 237° Southwest  Level Estimated
11:34AM 25.8927 118.4138 237° Southwest  Level Estimated
11:35AM 25.8295 118.3059 237° Southwest  Level Estimated
11:36AM 25.7663 118.1981 237° Southwest  Level Estimated
11:37AM 25.7030 118.0904 237° Southwest  Level Estimated
11:38AM 25.6397 117.9828 237° Southwest  Level Estimated
11:39AM 25.5762 117.8754 237° Southwest  Level Estimated
11:40AM 25.5127 117.7680 237° Southwest  Level Estimated
11:41AM 25.4491 117.6608 237° Southwest  Level Estimated
11:42AM 25.3854 117.5537 237° Southwest  Level Estimated
11:43AM 25.3217 117.4467 237° Southwest  Level Estimated
11:44AM 25.2578 117.3398 237° Southwest  Level Estimated
11:45AM 25.1939 117.2330 236° Southwest  Level Estimated
11:46AM 25.1299 117.1264 236° Southwest  Level Estimated
11:47AM 25.0659 117.0198 236° Southwest  Level Estimated
11:48AM 25.0017 116.9134 236° Southwest  Level Estimated
11:49AM 24.9375 116.8070 236° Southwest  Level Estimated
11:50AM 24.8732 116.7008 236° Southwest  Level Estimated
11:51AM 24.8089 116.5947 236° Southwest  Level Estimated
11:52AM 24.7444 116.4887 236° Southwest  Level Estimated
11:53AM 24.6799 116.3828 236° Southwest  Level Estimated
11:54AM 24.6153 116.2770 236° Southwest  Level Estimated
11:55AM 24.5507 116.1714 236° Southwest  Level Estimated
11:56AM 24.4860 116.0658 236° Southwest  Level Estimated
11:57AM 24.4211 115.9604 236° Southwest  Level Estimated
11:58AM 24.3563 115.8550 236° Southwest  Level Estimated
11:59AM 24.2913 115.7498 236° Southwest  Level Estimated
12:00PM 24.2263 115.6447 236° Southwest  Level Estimated
12:01PM 24.1612 115.5396 236° Southwest  Level Estimated
12:02PM 24.0960 115.4347 236° Southwest  Level Estimated
12:03PM 24.0308 115.3299 236° Southwest  Level Estimated
12:04PM 23.9655 115.2252 236° Southwest  Level Estimated
12:05PM 23.9001 115.1206 236° Southwest  Level Estimated
12:06PM 23.8346 115.0161 236° Southwest  Level Estimated
12:07PM 23.7691 114.9117 236° Southwest  Level Estimated
12:08PM 23.7035 114.8074 235° Southwest  Level Estimated
12:09PM 23.6378 114.7033 235° Southwest  Level Estimated
12:10PM 23.5721 114.5992 235° Southwest  Level Estimated
12:11PM 23.5063 114.4952 235° Southwest  Level Estimated
12:12PM 23.4405 114.3914 235° Southwest  Level Estimated
12:13PM 23.3745 114.2876 235° Southwest  Level Estimated
12:14PM 23.3085 114.1840 235° Southwest  Level Estimated
12:15PM 23.2424 114.0804 235° Southwest  Level Estimated
12:16PM 23.1763 113.9770 235° Southwest  Level Estimated
12:17PM 23.1101 113.8736 235° Southwest  Level Estimated
12:18PM 23.0438 113.7704 235° Southwest  Level Estimated
12:19PM 22.9774 113.6672 235° Southwest  Level Estimated
12:20PM 22.9110 113.5642 235° Southwest  Level Estimated
12:21PM 22.8445 113.4613 235° Southwest  Level Estimated
12:22PM 22.7780 113.3584 235° Southwest  Level Estimated
12:23PM 22.7114 113.2557 235° Southwest  Level Estimated
12:24PM 22.6447 113.1530 235° Southwest  Level Estimated
12:25PM 22.5780 113.0505 235° Southwest  Level Estimated
12:26PM 22.5112 112.9481 235° Southwest  Level Estimated
12:27PM 22.4443 112.8457 235° Southwest  Level Estimated
12:28PM 22.3773 112.7435 235° Southwest  Level Estimated
12:29PM 22.3104 112.6413 235° Southwest  Level Estimated
12:30PM 22.2433 112.5393 235° Southwest  Level Estimated
12:31PM 22.1762 112.4373 235° Southwest  Level Estimated
12:32PM 22.1090 112.3355 235° Southwest  Level Estimated
12:33PM 22.0417 112.2337 234° Southwest  Level Estimated
12:34PM 21.9744 112.1321 234° Southwest  Level Estimated
12:35PM 21.9070 112.0305 234° Southwest  Level Estimated
12:36PM 21.8396 111.9290 234° Southwest  Level Estimated
12:37PM 21.7721 111.8277 234° Southwest  Level Estimated
12:38PM 21.7045 111.7264 234° Southwest  Level Estimated
12:39PM 21.6369 111.6252 234° Southwest  Level Estimated
12:40PM 21.5692 111.5241 234° Southwest  Level Estimated
12:41PM 21.5014 111.4232 234° Southwest  Level Estimated
12:42PM 21.4336 111.3223 234° Southwest  Level Estimated
12:43PM 21.3658 111.2215 234° Southwest  Level Estimated
12:44PM 21.2978 111.1208 234° Southwest  Level Estimated
12:45PM 21.2298 111.0201 234° Southwest  Level Estimated
12:46PM 21.1618 110.9196 234° Southwest  Level Estimated
12:47PM 21.0937 110.8192 234° Southwest  Level Estimated
12:48PM 21.0255 110.7188 234° Southwest  Level Estimated
12:49PM 20.9573 110.6186 234° Southwest  Level Estimated
12:50PM 20.8890 110.5184 234° Southwest  Level Estimated
12:51PM 20.8207 110.4184 234° Southwest  Level Estimated
12:52PM 20.7523 110.3184 234° Southwest  Level Estimated
12:53PM 20.6838 110.2185 234° Southwest  Level Estimated
12:54PM 20.6153 110.1187 234° Southwest  Level Estimated
12:55PM 20.5467 110.0190 234° Southwest  Level Estimated
12:56PM 20.4781 109.9194 234° Southwest  Level Estimated
12:57PM 20.4094 109.8199 234° Southwest  Level Estimated
12:58PM 20.3406 109.7205 234° Southwest  Level Estimated
12:59PM 20.2718 109.6211 234° Southwest  Level Estimated
01:00PM 20.2030 109.5219 234° Southwest  Level Estimated
01:01PM 20.1341 109.4227 233° Southwest  Level Estimated
01:02PM 20.0651 109.3236 233° Southwest  Level Estimated
01:03PM 19.9961 109.2246 233° Southwest  Level Estimated
01:04PM 19.9270 109.1257 233° Southwest  Level Estimated
01:05PM 19.8579 109.0269 233° Southwest  Level Estimated
01:06PM 19.7887 108.9281 233° Southwest  Level Estimated
01:07PM 19.7194 108.8295 233° Southwest  Level Estimated
01:08PM 19.6502 108.7309 233° Southwest  Level Estimated
01:09PM 19.5808 108.6324 233° Southwest  Level Estimated
01:10PM 19.5114 108.5340 233° Southwest  Level Estimated
01:11PM 19.4419 108.4357 233° Southwest  Level Estimated
01:12PM 19.3724 108.3375 233° Southwest  Level Estimated
01:13PM 19.3029 108.2394 233° Southwest  Level Estimated
01:14PM 19.2333 108.1413 233° Southwest  Level Estimated
01:15PM 19.1636 108.0433 233° Southwest  Level Estimated
01:16PM 19.0939 107.9454 233° Southwest  Level Estimated
01:17PM 19.0241 107.8476 233° Southwest  Level Estimated
01:18PM 18.9543 107.7499 233° Southwest  Level Estimated
01:19PM 18.8844 107.6523 233° Southwest  Level Estimated
01:20PM 18.8145 107.5547 233° Southwest  Level Estimated
01:21PM 18.7445 107.4572 233° Southwest  Level Estimated
01:22PM 18.6745 107.3598 233° Southwest  Level Estimated
01:23PM 18.6044 107.2625 233° Southwest  Level Estimated
01:24PM 18.5343 107.1652 233° Southwest  Level Estimated
01:25PM 18.4641 107.0681 233° Southwest  Level Estimated
01:26PM 18.3939 106.9710 233° Southwest  Level Estimated
01:27PM 18.3237 106.8740 233° Southwest  Level Estimated
01:28PM 18.2533 106.7771 233° Southwest  Level Estimated
01:29PM 18.1830 106.6802 233° Southwest  Level Estimated
01:30PM 18.1125 106.5835 233° Southwest  Level Estimated
01:31PM 18.0421 106.4868 233° Southwest  Level Estimated
01:32PM 17.9716 106.3902 232° Southwest  Level Estimated
01:33PM 17.9010 106.2936 232° Southwest  Level Estimated
01:34PM 17.8304 106.1972 232° Southwest  Level Estimated
01:35PM 17.7597 106.1008 232° Southwest  Level Estimated
01:36PM 17.6890 106.0045 232° Southwest  Level Estimated
01:37PM 17.6183 105.9082 232° Southwest  Level Estimated
01:38PM 17.5475 105.8121 232° Southwest  Level Estimated
01:39PM 17.4766 105.7160 232° Southwest  Level Estimated
01:40PM 17.4057 105.6200 232° Southwest  Level Estimated
01:41PM 17.3348 105.5241 232° Southwest  Level Estimated
01:42PM 17.2638 105.4282 232° Southwest  Level Estimated
01:43PM 17.1928 105.3324 232° Southwest  Level Estimated
01:44PM 17.1217 105.2367 232° Southwest  Level Estimated
01:45PM 17.0506 105.1411 232° Southwest  Level Estimated
01:46PM 16.9794 105.0455 232° Southwest  Level Estimated
01:47PM 16.9082 104.9500 232° Southwest  Level Estimated
01:48PM 16.8370 104.8546 232° Southwest  Level Estimated
01:49PM 16.7657 104.7592 232° Southwest  Level Estimated
01:50PM 16.6943 104.6640 232° Southwest  Level Estimated
01:51PM 16.6230 104.5688 232° Southwest  Level Estimated
01:52PM 16.5515 104.4736 232° Southwest  Level Estimated
01:53PM 16.4801 104.3786 232° Southwest  Level Estimated
01:54PM 16.4086 104.2836 232° Southwest  Level Estimated
01:55PM 16.3370 104.1887 232° Southwest  Level Estimated
01:56PM 16.2654 104.0938 232° Southwest  Level Estimated
01:57PM 16.1938 103.9990 232° Southwest  Level Estimated
01:58PM 16.1221 103.9043 232° Southwest  Level Estimated
01:59PM 16.0504 103.8097 232° Southwest  Level Estimated
02:00PM 15.9786 103.7151 232° Southwest  Level Estimated
02:01PM 15.9068 103.6206 232° Southwest  Level Estimated
02:02PM 15.8350 103.5261 232° Southwest  Level Estimated
02:03PM 15.7631 103.4317 232° Southwest  Level Estimated
02:04PM 15.6911 103.3374 232° Southwest  Level Estimated
02:05PM 15.6192 103.2432 232° Southwest  Level Estimated
02:06PM 15.5472 103.1490 232° Southwest  Level Estimated
02:07PM 15.4751 103.0549 232° Southwest  Level Estimated
02:08PM 15.4030 102.9609 231° Southwest  Level Estimated
02:09PM 15.3309 102.8669 231° Southwest  Level Estimated
02:10PM 15.2587 102.7729 231° Southwest  Level Estimated
02:11PM 15.1865 102.6791 231° Southwest  Level Estimated
02:12PM 15.1143 102.5853 231° Southwest  Level Estimated
02:13PM 15.0420 102.4916 231° Southwest  Level Estimated
02:14PM 14.9697 102.3979 231° Southwest  Level Estimated
02:15PM 14.8973 102.3043 231° Southwest  Level Estimated
02:16PM 14.8249 102.2108 231° Southwest  Level Estimated
02:17PM 14.7525 102.1173 231° Southwest  Level Estimated
02:18PM 14.6800 102.0239 231° Southwest  Level Estimated
02:19PM 14.6075 101.9306 231° Southwest  Level Estimated
02:20PM 14.5350 101.8373 231° Southwest  Level Estimated
02:21PM 14.4624 101.7440 231° Southwest  Level Estimated
02:22PM 14.3897 101.6509 231° Southwest  Level Estimated
02:23PM 14.3171 101.5578 231° Southwest  Level Estimated
02:24PM 14.2444 101.4647 231° Southwest  Level Estimated
02:25PM 14.1717 101.3717 231° Southwest  Level Estimated
02:26PM 14.0989 101.2788 231° Southwest  Level Estimated
02:27PM 14.0261 101.1860 231° Southwest  Level Estimated
02:28PM 13.9533 101.0932 231° Southwest  Level Estimated
02:29PM 13.8804 101.0004 231° Southwest  Level Estimated
02:30PM 13.8075 100.9077 231° Southwest  Level Estimated
02:31PM 13.7346 100.8151 231° Southwest  Level Estimated
02:32PM 13.6616 100.7225 51° Northeast  Level Estimated
02:33PM 13.7346 100.8151 231° Southwest  Level Estimated
02:34PM 13.6616 100.7225 51° Northeast  Level Estimated
02:35PM 13.7346 100.8151 231° Southwest  Level Estimated
02:36PM 13.6616 100.7225 51° Northeast  Level Estimated
02:37PM 13.7346 100.8151 231° Southwest  Level Estimated
02:38PM 13.6616 100.7225 51° Northeast  Level Estimated
02:39PM 13.7346 100.8151 231° Southwest  Level Estimated
02:40PM 13.6616 100.7225 51° Northeast  Level Estimated
02:41PM 13.7346 100.8151 231° Southwest  Level Estimated
02:42PM 13.6616 100.7225 51° Northeast  Level Estimated
02:43PM 13.7346 100.8151 231° Southwest  Level Estimated
02:44PM 13.6616 100.7225 51° Northeast  Level Estimated
02:45PM 13.7346 100.8151 51° Northeast  Level Estimated